Nanticoke — WDC4353 — position and weather

sailwx.info

Track history (hours):
 
Tides and Currents Weather Stations Pressure Air Temp Water Temp Dewpoint Dewpoint Depression Visibility Wind Speed Wind Dir Waves Ship Positions

Nanticoke

Owner: Vane Line Bunkering, Baltimore, MD. More information available from US FCC via Universal Licensing System and Coast Guard Vessel Documentation Center.

Last reported at 2016-Feb-07 15:09 UTC. Time now 2016-Feb-13 12:46 UTC.
Position N 40°48' W 073°59'.

Length 34 m; draft 4.7 m.

Type: Towing. MMSI: 367023480.

Date/timePositionNaut miles runAvg speedWind from/ knotsBaromVisibWave heightAir tempDewpointWater temp
2016-Feb-07 15:09N 40°48' W 073°59'610.4
2016-Feb-07 14:33N 40°42' W 074°02'4 4.1
2016-Feb-07 13:33N 40°39' W 074°06'0 0.0
2016-Feb-07 12:33N 40°39' W 074°06'0 0.0
2016-Feb-07 11:33N 40°39' W 074°06'0 0.0
2016-Feb-07 10:33N 40°39' W 074°06'0 0.0
2016-Feb-07 09:33N 40°39' W 074°06'0 0.0
2016-Feb-07 08:33N 40°39' W 074°06'0 0.0
2016-Feb-07 07:33N 40°39' W 074°06'0 0.0
2016-Feb-07 06:33N 40°39' W 074°06'0 0.0
2016-Feb-07 05:33N 40°39' W 074°06'0 0.0
2016-Feb-07 04:33N 40°39' W 074°06'0 0.0
2016-Feb-07 03:33N 40°39' W 074°06'0 0.0
2016-Feb-07 02:33N 40°39' W 074°06'0 0.0
2016-Feb-07 01:33N 40°39' W 074°06'0 0.0
2016-Feb-07 00:33N 40°39' W 074°06'0 0.0
2016-Feb-06 23:33N 40°39' W 074°06'0 0.0
2016-Feb-06 22:33N 40°39' W 074°06'3 2.9
2016-Feb-06 21:33N 40°40' W 074°02'0 0.1
2016-Feb-06 20:33N 40°40' W 074°02'0 0.1
2016-Feb-06 19:33N 40°40' W 074°02'0 0.0
2016-Feb-06 18:33N 40°40' W 074°02'0 0.0
2016-Feb-06 17:34N 40°40' W 074°02'0 0.0
2016-Feb-06 16:33N 40°40' W 074°02'0 0.0
2016-Feb-06 15:33N 40°40' W 074°02'0 0.1
2016-Feb-06 14:33N 40°40' W 074°02'0 0.2
2016-Feb-06 13:33N 40°40' W 074°02'0 0.0
2016-Feb-06 12:33N 40°40' W 074°02'2 2.4
2016-Feb-06 11:33N 40°39' W 074°05'1 1.0
2016-Feb-06 10:33N 40°40' W 074°05'0 0.0
2016-Feb-06 09:33N 40°40' W 074°05'0 0.0
2016-Feb-06 08:33N 40°40' W 074°05'0 0.0
2016-Feb-06 07:33N 40°40' W 074°05'0 0.0
2016-Feb-06 06:33N 40°40' W 074°05'0 0.0
2016-Feb-06 05:33N 40°40' W 074°05'0 0.0
2016-Feb-06 04:33N 40°40' W 074°05'0 0.0
2016-Feb-06 03:33N 40°40' W 074°05'0 0.0
2016-Feb-06 02:33N 40°40' W 074°05'0 0.0
2016-Feb-06 01:33N 40°40' W 074°05'0 0.0
2016-Feb-06 00:33N 40°40' W 074°05'0 0.0
2016-Feb-05 23:33N 40°40' W 074°05'0 0.0
2016-Feb-05 22:33N 40°40' W 074°05'0 0.0
2016-Feb-05 21:34N 40°40' W 074°05'3 3.0
2016-Feb-05 20:33N 40°40' W 074°01'0 0.2
2016-Feb-05 19:34N 40°40' W 074°01'0 0.4
2016-Feb-05 18:33N 40°40' W 074°01'3 3.5
2016-Feb-05 17:33N 40°39' W 074°05'3 2.5
2016-Feb-05 16:33N 40°40' W 074°02'0 0.0
2016-Feb-05 15:34N 40°40' W 074°02'0 0.0
2016-Feb-05 14:33N 40°40' W 074°02'0 0.0
2016-Feb-05 13:33N 40°40' W 074°02'0 0.0
2016-Feb-05 12:33N 40°40' W 074°02'0 0.1
2016-Feb-05 11:34N 40°40' W 074°02'0 0.1
2016-Feb-05 10:33N 40°40' W 074°02'0 0.1
2016-Feb-05 09:33N 40°40' W 074°02'0 0.0
2016-Feb-05 08:33N 40°40' W 074°02'0 0.0
2016-Feb-05 07:34N 40°40' W 074°02'0 0.0
2016-Feb-05 06:34N 40°40' W 074°02'0 0.0
2016-Feb-05 05:33N 40°40' W 074°02'0 0.0
2016-Feb-05 04:33N 40°40' W 074°02'0 0.0
2016-Feb-05 03:33N 40°40' W 074°02'0 0.0
2016-Feb-05 02:33N 40°40' W 074°02'0 0.0
2016-Feb-05 01:34N 40°40' W 074°02'0 0.0
2016-Feb-05 00:33N 40°40' W 074°02'0 0.0
2016-Feb-04 23:33N 40°40' W 074°02'1 1.3
2016-Feb-04 22:33N 40°40' W 074°00'0 0.0
2016-Feb-04 21:33N 40°40' W 074°00'0 0.0
2016-Feb-04 20:33N 40°40' W 074°00'0 0.0
2016-Feb-04 19:33N 40°40' W 074°00'1 1.4
2016-Feb-04 18:33N 40°40' W 074°02'0 0.0
2016-Feb-04 17:33N 40°40' W 074°02'0 0.0
2016-Feb-04 16:33N 40°40' W 074°02'0 0.0
2016-Feb-04 15:33N 40°40' W 074°02'0 0.0
2016-Feb-04 14:33N 40°40' W 074°02'0 0.0
2016-Feb-04 13:33N 40°40' W 074°02'0 0.1
2016-Feb-04 12:33N 40°40' W 074°02'0 0.1
2016-Feb-04 11:33N 40°40' W 074°02'0 0.0
2016-Feb-04 10:33N 40°40' W 074°02'0 0.0
2016-Feb-04 09:33N 40°40' W 074°02'0 0.0
2016-Feb-04 08:33N 40°40' W 074°02'0 0.0
2016-Feb-04 07:33N 40°40' W 074°02'0 0.1
2016-Feb-04 06:33N 40°40' W 074°02'0 0.1
2016-Feb-04 05:34N 40°40' W 074°02'0 0.0
2016-Feb-04 04:33N 40°40' W 074°02'0 0.0
2016-Feb-04 03:33N 40°40' W 074°02'0 0.1
2016-Feb-04 02:33N 40°40' W 074°02'0 0.1
2016-Feb-04 01:33N 40°40' W 074°02'0 0.0
2016-Feb-04 00:33N 40°40' W 074°02'0 0.0
2016-Feb-03 23:33N 40°40' W 074°02'0 0.0
2016-Feb-03 22:33N 40°40' W 074°02'0 0.0
2016-Feb-03 21:34N 40°40' W 074°02'0 0.0
2016-Feb-03 20:34N 40°40' W 074°02'0 0.0
2016-Feb-03 19:33N 40°40' W 074°02'0 0.0
2016-Feb-03 18:33N 40°40' W 074°02'0 0.0
2016-Feb-03 17:33N 40°40' W 074°02'1 1.4
2016-Feb-03 16:33N 40°40' W 074°00'0 0.0
2016-Feb-03 15:33N 40°40' W 074°00'0 0.1
2016-Feb-03 14:33N 40°40' W 074°00'1 1.4
2016-Feb-03 13:33N 40°40' W 074°02'0 0.0
2016-Feb-03 12:33N 40°40' W 074°02'0 0.1
2016-Feb-03 11:33N 40°40' W 074°02'0 0.0
2016-Feb-03 10:33N 40°40' W 074°02'0 0.0
2016-Feb-03 09:33N 40°40' W 074°02'0 0.0
2016-Feb-03 08:33N 40°40' W 074°02'0 0.0
2016-Feb-03 07:34N 40°40' W 074°02'0 0.1
2016-Feb-03 06:33N 40°40' W 074°02'0 0.1
2016-Feb-03 05:33N 40°40' W 074°02'0 0.0
2016-Feb-03 04:33N 40°40' W 074°02'0 0.0
2016-Feb-03 03:33N 40°40' W 074°02'0 0.0
2016-Feb-03 02:33N 40°40' W 074°02'0 0.0
2016-Feb-03 01:33N 40°40' W 074°02'0 0.0
2016-Feb-03 00:34N 40°40' W 074°02'0 0.0
2016-Feb-02 23:33N 40°40' W 074°02'0 0.1
2016-Feb-02 22:33N 40°40' W 074°02'0 0.1
2016-Feb-02 21:33N 40°40' W 074°02'0 0.0
2016-Feb-02 20:33N 40°40' W 074°02'0 0.1
2016-Feb-02 19:33N 40°40' W 074°02'0 0.1
2016-Feb-02 18:33N 40°40' W 074°02'0 0.0
2016-Feb-02 17:33N 40°40' W 074°02'0 0.0
2016-Feb-02 16:34N 40°40' W 074°02'0 0.0
2016-Feb-02 15:33N 40°40' W 074°02'0 0.0
2016-Feb-02 14:33N 40°40' W 074°02'0 0.0
2016-Feb-02 13:33N 40°40' W 074°02'0 0.0
2016-Feb-02 12:34N 40°40' W 074°02'0 0.0
2016-Feb-02 11:34N 40°40' W 074°02'0 0.0
2016-Feb-02 10:33N 40°40' W 074°02'0 0.1
2016-Feb-02 09:33N 40°40' W 074°02'0 0.1
2016-Feb-02 08:33N 40°40' W 074°02'0 0.1
2016-Feb-02 07:34N 40°40' W 074°02'0 0.0
2016-Feb-02 06:33N 40°40' W 074°02'0 0.1
2016-Feb-02 05:33N 40°40' W 074°02'0 0.0
2016-Feb-02 04:33N 40°40' W 074°02'0 0.0
2016-Feb-02 03:33N 40°40' W 074°02'0 0.0
2016-Feb-02 02:33N 40°40' W 074°02'0 0.0
2016-Feb-02 01:33N 40°40' W 074°02'0 0.4
2016-Feb-02 00:33N 40°40' W 074°02'3 2.9
2016-Feb-01 23:34N 40°39' W 074°06'1 1.1
2016-Feb-01 22:34N 40°39' W 074°07'0 0.0
2016-Feb-01 21:34N 40°39' W 074°07'0 0.0
2016-Feb-01 20:34N 40°39' W 074°07'0 0.0
2016-Feb-01 19:33N 40°39' W 074°07'0 0.0
2016-Feb-01 18:34N 40°39' W 074°07'0 0.0
2016-Feb-01 17:34N 40°39' W 074°07'0 0.0
2016-Feb-01 16:34N 40°39' W 074°07'0 0.0
2016-Feb-01 15:34N 40°39' W 074°07'0 0.0
2016-Feb-01 14:33N 40°39' W 074°07'0 0.0
2016-Feb-01 13:34N 40°39' W 074°07'1 1.4
2016-Feb-01 12:33N 40°39' W 074°05'0 0.0
2016-Feb-01 11:33N 40°39' W 074°05'0 0.0
2016-Feb-01 10:33N 40°39' W 074°05'0 0.0
2016-Feb-01 09:33N 40°39' W 074°05'0 0.0
2016-Feb-01 08:34N 40°39' W 074°05'0 0.0
2016-Feb-01 07:33N 40°39' W 074°05'0 0.0
2016-Feb-01 06:33N 40°39' W 074°05'5 5.1
2016-Feb-01 05:33N 40°35' W 074°01'0 0.1
2016-Feb-01 04:33N 40°35' W 074°01'0 0.1
2016-Feb-01 03:33N 40°35' W 074°01'0 0.1
2016-Feb-01 02:33N 40°35' W 074°01'0 0.0
2016-Feb-01 01:33N 40°35' W 074°01'3 2.9
2016-Feb-01 00:33N 40°37' W 074°03'2 2.3
2016-Jan-31 23:33N 40°39' W 074°05'4 3.5
2016-Jan-31 22:34N 40°40' W 074°00'0 0.0
2016-Jan-31 21:33N 40°40' W 074°00'0 0.0
2016-Jan-31 20:33N 40°40' W 074°00'0 0.0
2016-Jan-31 19:33N 40°40' W 074°00'0 0.1
2016-Jan-31 18:33N 40°40' W 074°00'0 0.1
2016-Jan-31 17:33N 40°40' W 074°00'0 0.0
2016-Jan-31 16:33N 40°40' W 074°00'0 0.0
2016-Jan-31 15:33N 40°40' W 074°00'0 0.0
2016-Jan-31 14:33N 40°40' W 074°00'0 0.0
2016-Jan-31 13:33N 40°40' W 074°00'0 0.0
2016-Jan-31 12:33N 40°40' W 074°00'0 0.0
2016-Jan-31 11:33N 40°40' W 074°00'0 0.0
2016-Jan-31 10:33N 40°40' W 074°00'0 0.0
2016-Jan-31 09:33N 40°40' W 074°00'0 0.0
2016-Jan-31 08:33N 40°40' W 074°00'0 0.0
2016-Jan-31 07:33N 40°40' W 074°00'0 0.0
2016-Jan-31 06:33N 40°40' W 074°00'0 0.0
2016-Jan-31 05:33N 40°40' W 074°00'0 0.0
2016-Jan-31 04:33N 40°40' W 074°00'0 0.0
2016-Jan-31 03:33N 40°40' W 074°00'0 0.0
2016-Jan-31 02:33N 40°40' W 074°00'0 0.0
2016-Jan-31 01:33N 40°40' W 074°00'2 1.8
2016-Jan-31 00:34N 40°39' W 074°02'2 2.2
2016-Jan-30 23:33N 40°39' W 074°05'2 1.8
2016-Jan-30 22:33N 40°39' W 074°03'0 0.1
2016-Jan-30 21:33N 40°40' W 074°03'0 0.2
2016-Jan-30 20:33N 40°40' W 074°03'4 4.1
2016-Jan-30 19:33N 40°35' W 074°02'6 6.3
2016-Jan-30 18:33N 40°30' W 073°57'39 9.2
2016-Jan-30 14:17N 39°51' W 073°57'8 9.9
2016-Jan-30 13:30N 39°44' W 074°00'10 9.8
2016-Jan-30 12:31N 39°35' W 074°05'10 9.8
2016-Jan-30 11:33N 39°26' W 074°11'46 9.2
2016-Jan-30 06:31N 38°51' W 074°49'7 7.7
2016-Jan-30 05:33N 38°48' W 074°58'6 6.5
2016-Jan-30 04:33N 38°53' W 075°04'7 7.4
2016-Jan-30 03:33N 38°59' W 075°08'7 6.8
2016-Jan-30 02:33N 39°06' W 075°12'8 7.8
2016-Jan-30 01:33N 39°12' W 075°17'9 8.8
2016-Jan-30 00:33N 39°19' W 075°24'9 9.0
2016-Jan-29 23:33N 39°26' W 075°32'7 7.4
2016-Jan-29 22:33N 39°33' W 075°33'6 6.0
2016-Jan-29 21:33N 39°39' W 075°33'6 6.0
2016-Jan-29 20:33N 39°45' W 075°30'6 6.0
2016-Jan-29 19:33N 39°49' W 075°24'6 5.8
2016-Jan-29 18:33N 39°51' W 075°17'4 3.5
2016-Jan-29 17:33N 39°52' W 075°13'2 1.6
2016-Jan-29 16:33N 39°54' W 075°12'0 0.0
2016-Jan-29 15:33N 39°54' W 075°12'2 1.7
2016-Jan-29 14:33N 39°52' W 075°13'0 0.0
2016-Jan-29 13:33N 39°52' W 075°13'0 0.0
2016-Jan-29 12:33N 39°52' W 075°13'0 0.0
2016-Jan-29 11:33N 39°52' W 075°13'0 0.2
2016-Jan-29 10:33N 39°52' W 075°13'0 0.0
2016-Jan-29 09:33N 39°52' W 075°13'0 0.0
2016-Jan-29 08:33N 39°52' W 075°13'1 1.1
2016-Jan-29 07:33N 39°51' W 075°14'0 0.0
2016-Jan-29 06:33N 39°51' W 075°14'0 0.0
2016-Jan-29 05:33N 39°51' W 075°14'0 0.1
2016-Jan-29 04:33N 39°51' W 075°14'6 6.0
2016-Jan-29 03:33N 39°55' W 075°08'4 4.2
2016-Jan-29 02:33N 39°59' W 075°05'0 0.4
2016-Jan-29 01:33N 39°59' W 075°05'0 0.0
2016-Jan-29 00:33N 39°59' W 075°05'0 0.0
2016-Jan-28 23:33N 39°59' W 075°05'0 0.0
2016-Jan-28 22:33N 39°59' W 075°05'0 0.0
2016-Jan-28 21:33N 39°59' W 075°05'4 4.1
2016-Jan-28 20:33N 39°55' W 075°08'4 3.7
2016-Jan-28 19:33N 39°54' W 075°12'0 0.0
2016-Jan-28 18:33N 39°54' W 075°12'0 0.0
2016-Jan-28 17:33N 39°54' W 075°12'0 0.0
2016-Jan-28 16:33N 39°54' W 075°12'0 0.0
2016-Jan-28 15:33N 39°54' W 075°12'  
Track history (hours):
 
Tides and Currents Weather Stations Pressure Air Temp Water Temp Dewpoint Dewpoint Depression Visibility Wind Speed Wind Dir Waves Ship Positions

Nanticoke

Owner: Vane Line Bunkering, Baltimore, MD. More information available from US FCC via Universal Licensing System and Coast Guard Vessel Documentation Center.

Last reported at 2016-Feb-07 15:09 UTC. Time now 2016-Feb-13 12:46 UTC.
Position N 40°48' W 073°59'.

Length 34 m; draft 4.7 m.

Type: Towing. MMSI: 367023480.

Date/timePositionNaut miles runAvg speedWind from/ knotsBaromVisibWave heightAir tempDewpointWater temp
2016-Feb-07 15:09N 40°48' W 073°59'610.4
2016-Feb-07 14:33N 40°42' W 074°02'4 4.1
2016-Feb-07 13:33N 40°39' W 074°06'0 0.0
2016-Feb-07 12:33N 40°39' W 074°06'0 0.0
2016-Feb-07 11:33N 40°39' W 074°06'0 0.0
2016-Feb-07 10:33N 40°39' W 074°06'0 0.0
2016-Feb-07 09:33N 40°39' W 074°06'0 0.0
2016-Feb-07 08:33N 40°39' W 074°06'0 0.0
2016-Feb-07 07:33N 40°39' W 074°06'0 0.0
2016-Feb-07 06:33N 40°39' W 074°06'0 0.0
2016-Feb-07 05:33N 40°39' W 074°06'0 0.0
2016-Feb-07 04:33N 40°39' W 074°06'0 0.0
2016-Feb-07 03:33N 40°39' W 074°06'0 0.0
2016-Feb-07 02:33N 40°39' W 074°06'0 0.0
2016-Feb-07 01:33N 40°39' W 074°06'0 0.0
2016-Feb-07 00:33N 40°39' W 074°06'0 0.0
2016-Feb-06 23:33N 40°39' W 074°06'0 0.0
2016-Feb-06 22:33N 40°39' W 074°06'3 2.9
2016-Feb-06 21:33N 40°40' W 074°02'0 0.1
2016-Feb-06 20:33N 40°40' W 074°02'0 0.1
2016-Feb-06 19:33N 40°40' W 074°02'0 0.0
2016-Feb-06 18:33N 40°40' W 074°02'0 0.0
2016-Feb-06 17:34N 40°40' W 074°02'0 0.0
2016-Feb-06 16:33N 40°40' W 074°02'0 0.0
2016-Feb-06 15:33N 40°40' W 074°02'0 0.1
2016-Feb-06 14:33N 40°40' W 074°02'0 0.2
2016-Feb-06 13:33N 40°40' W 074°02'0 0.0
2016-Feb-06 12:33N 40°40' W 074°02'2 2.4
2016-Feb-06 11:33N 40°39' W 074°05'1 1.0
2016-Feb-06 10:33N 40°40' W 074°05'0 0.0
2016-Feb-06 09:33N 40°40' W 074°05'0 0.0
2016-Feb-06 08:33N 40°40' W 074°05'0 0.0
2016-Feb-06 07:33N 40°40' W 074°05'0 0.0
2016-Feb-06 06:33N 40°40' W 074°05'0 0.0
2016-Feb-06 05:33N 40°40' W 074°05'0 0.0
2016-Feb-06 04:33N 40°40' W 074°05'0 0.0
2016-Feb-06 03:33N 40°40' W 074°05'0 0.0
2016-Feb-06 02:33N 40°40' W 074°05'0 0.0
2016-Feb-06 01:33N 40°40' W 074°05'0 0.0
2016-Feb-06 00:33N 40°40' W 074°05'0 0.0
2016-Feb-05 23:33N 40°40' W 074°05'0 0.0
2016-Feb-05 22:33N 40°40' W 074°05'0 0.0
2016-Feb-05 21:34N 40°40' W 074°05'3 3.0
2016-Feb-05 20:33N 40°40' W 074°01'0 0.2
2016-Feb-05 19:34N 40°40' W 074°01'0 0.4
2016-Feb-05 18:33N 40°40' W 074°01'3 3.5
2016-Feb-05 17:33N 40°39' W 074°05'3 2.5
2016-Feb-05 16:33N 40°40' W 074°02'0 0.0
2016-Feb-05 15:34N 40°40' W 074°02'0 0.0
2016-Feb-05 14:33N 40°40' W 074°02'0 0.0
2016-Feb-05 13:33N 40°40' W 074°02'0 0.0
2016-Feb-05 12:33N 40°40' W 074°02'0 0.1
2016-Feb-05 11:34N 40°40' W 074°02'0 0.1
2016-Feb-05 10:33N 40°40' W 074°02'0 0.1
2016-Feb-05 09:33N 40°40' W 074°02'0 0.0
2016-Feb-05 08:33N 40°40' W 074°02'0 0.0
2016-Feb-05 07:34N 40°40' W 074°02'0 0.0
2016-Feb-05 06:34N 40°40' W 074°02'0 0.0
2016-Feb-05 05:33N 40°40' W 074°02'0 0.0
2016-Feb-05 04:33N 40°40' W 074°02'0 0.0
2016-Feb-05 03:33N 40°40' W 074°02'0 0.0
2016-Feb-05 02:33N 40°40' W 074°02'0 0.0
2016-Feb-05 01:34N 40°40' W 074°02'0 0.0
2016-Feb-05 00:33N 40°40' W 074°02'0 0.0
2016-Feb-04 23:33N 40°40' W 074°02'1 1.3
2016-Feb-04 22:33N 40°40' W 074°00'0 0.0
2016-Feb-04 21:33N 40°40' W 074°00'0 0.0
2016-Feb-04 20:33N 40°40' W 074°00'0 0.0
2016-Feb-04 19:33N 40°40' W 074°00'1 1.4
2016-Feb-04 18:33N 40°40' W 074°02'0 0.0
2016-Feb-04 17:33N 40°40' W 074°02'0 0.0
2016-Feb-04 16:33N 40°40' W 074°02'0 0.0
2016-Feb-04 15:33N 40°40' W 074°02'0 0.0
2016-Feb-04 14:33N 40°40' W 074°02'0 0.0
2016-Feb-04 13:33N 40°40' W 074°02'0 0.1
2016-Feb-04 12:33N 40°40' W 074°02'0 0.1
2016-Feb-04 11:33N 40°40' W 074°02'0 0.0
2016-Feb-04 10:33N 40°40' W 074°02'0 0.0
2016-Feb-04 09:33N 40°40' W 074°02'0 0.0
2016-Feb-04 08:33N 40°40' W 074°02'0 0.0
2016-Feb-04 07:33N 40°40' W 074°02'0 0.1
2016-Feb-04 06:33N 40°40' W 074°02'0 0.1
2016-Feb-04 05:34N 40°40' W 074°02'0 0.0
2016-Feb-04 04:33N 40°40' W 074°02'0 0.0
2016-Feb-04 03:33N 40°40' W 074°02'0 0.1
2016-Feb-04 02:33N 40°40' W 074°02'0 0.1
2016-Feb-04 01:33N 40°40' W 074°02'0 0.0
2016-Feb-04 00:33N 40°40' W 074°02'0 0.0
2016-Feb-03 23:33N 40°40' W 074°02'0 0.0
2016-Feb-03 22:33N 40°40' W 074°02'0 0.0
2016-Feb-03 21:34N 40°40' W 074°02'0 0.0
2016-Feb-03 20:34N 40°40' W 074°02'0 0.0
2016-Feb-03 19:33N 40°40' W 074°02'0 0.0
2016-Feb-03 18:33N 40°40' W 074°02'0 0.0
2016-Feb-03 17:33N 40°40' W 074°02'1 1.4
2016-Feb-03 16:33N 40°40' W 074°00'0 0.0
2016-Feb-03 15:33N 40°40' W 074°00'0 0.1
2016-Feb-03 14:33N 40°40' W 074°00'1 1.4
2016-Feb-03 13:33N 40°40' W 074°02'0 0.0
2016-Feb-03 12:33N 40°40' W 074°02'0 0.1
2016-Feb-03 11:33N 40°40' W 074°02'0 0.0
2016-Feb-03 10:33N 40°40' W 074°02'0 0.0
2016-Feb-03 09:33N 40°40' W 074°02'0 0.0
2016-Feb-03 08:33N 40°40' W 074°02'0 0.0
2016-Feb-03 07:34N 40°40' W 074°02'0 0.1
2016-Feb-03 06:33N 40°40' W 074°02'0 0.1
2016-Feb-03 05:33N 40°40' W 074°02'0 0.0
2016-Feb-03 04:33N 40°40' W 074°02'0 0.0
2016-Feb-03 03:33N 40°40' W 074°02'0 0.0
2016-Feb-03 02:33N 40°40' W 074°02'0 0.0
2016-Feb-03 01:33N 40°40' W 074°02'0 0.0
2016-Feb-03 00:34N 40°40' W 074°02'0 0.0
2016-Feb-02 23:33N 40°40' W 074°02'0 0.1
2016-Feb-02 22:33N 40°40' W 074°02'0 0.1
2016-Feb-02 21:33N 40°40' W 074°02'0 0.0
2016-Feb-02 20:33N 40°40' W 074°02'0 0.1
2016-Feb-02 19:33N 40°40' W 074°02'0 0.1
2016-Feb-02 18:33N 40°40' W 074°02'0 0.0
2016-Feb-02 17:33N 40°40' W 074°02'0 0.0
2016-Feb-02 16:34N 40°40' W 074°02'0 0.0
2016-Feb-02 15:33N 40°40' W 074°02'0 0.0
2016-Feb-02 14:33N 40°40' W 074°02'0 0.0
2016-Feb-02 13:33N 40°40' W 074°02'0 0.0
2016-Feb-02 12:34N 40°40' W 074°02'0 0.0
2016-Feb-02 11:34N 40°40' W 074°02'0 0.0
2016-Feb-02 10:33N 40°40' W 074°02'0 0.1
2016-Feb-02 09:33N 40°40' W 074°02'0 0.1
2016-Feb-02 08:33N 40°40' W 074°02'0 0.1
2016-Feb-02 07:34N 40°40' W 074°02'0 0.0
2016-Feb-02 06:33N 40°40' W 074°02'0 0.1
2016-Feb-02 05:33N 40°40' W 074°02'0 0.0
2016-Feb-02 04:33N 40°40' W 074°02'0 0.0
2016-Feb-02 03:33N 40°40' W 074°02'0 0.0
2016-Feb-02 02:33N 40°40' W 074°02'0 0.0
2016-Feb-02 01:33N 40°40' W 074°02'0 0.4
2016-Feb-02 00:33N 40°40' W 074°02'3 2.9
2016-Feb-01 23:34N 40°39' W 074°06'1 1.1
2016-Feb-01 22:34N 40°39' W 074°07'0 0.0
2016-Feb-01 21:34N 40°39' W 074°07'0 0.0
2016-Feb-01 20:34N 40°39' W 074°07'0 0.0
2016-Feb-01 19:33N 40°39' W 074°07'0 0.0
2016-Feb-01 18:34N 40°39' W 074°07'0 0.0
2016-Feb-01 17:34N 40°39' W 074°07'0 0.0
2016-Feb-01 16:34N 40°39' W 074°07'0 0.0
2016-Feb-01 15:34N 40°39' W 074°07'0 0.0
2016-Feb-01 14:33N 40°39' W 074°07'0 0.0
2016-Feb-01 13:34N 40°39' W 074°07'1 1.4
2016-Feb-01 12:33N 40°39' W 074°05'0 0.0
2016-Feb-01 11:33N 40°39' W 074°05'0 0.0
2016-Feb-01 10:33N 40°39' W 074°05'0 0.0
2016-Feb-01 09:33N 40°39' W 074°05'0 0.0
2016-Feb-01 08:34N 40°39' W 074°05'0 0.0
2016-Feb-01 07:33N 40°39' W 074°05'0 0.0
2016-Feb-01 06:33N 40°39' W 074°05'5 5.1
2016-Feb-01 05:33N 40°35' W 074°01'0 0.1
2016-Feb-01 04:33N 40°35' W 074°01'0 0.1
2016-Feb-01 03:33N 40°35' W 074°01'0 0.1
2016-Feb-01 02:33N 40°35' W 074°01'0 0.0
2016-Feb-01 01:33N 40°35' W 074°01'3 2.9
2016-Feb-01 00:33N 40°37' W 074°03'2 2.3
2016-Jan-31 23:33N 40°39' W 074°05'4 3.5
2016-Jan-31 22:34N 40°40' W 074°00'0 0.0
2016-Jan-31 21:33N 40°40' W 074°00'0 0.0
2016-Jan-31 20:33N 40°40' W 074°00'0 0.0
2016-Jan-31 19:33N 40°40' W 074°00'0 0.1
2016-Jan-31 18:33N 40°40' W 074°00'0 0.1
2016-Jan-31 17:33N 40°40' W 074°00'0 0.0
2016-Jan-31 16:33N 40°40' W 074°00'0 0.0
2016-Jan-31 15:33N 40°40' W 074°00'0 0.0
2016-Jan-31 14:33N 40°40' W 074°00'0 0.0
2016-Jan-31 13:33N 40°40' W 074°00'0 0.0
2016-Jan-31 12:33N 40°40' W 074°00'0 0.0
2016-Jan-31 11:33N 40°40' W 074°00'0 0.0
2016-Jan-31 10:33N 40°40' W 074°00'0 0.0
2016-Jan-31 09:33N 40°40' W 074°00'0 0.0
2016-Jan-31 08:33N 40°40' W 074°00'0 0.0
2016-Jan-31 07:33N 40°40' W 074°00'0 0.0
2016-Jan-31 06:33N 40°40' W 074°00'0 0.0
2016-Jan-31 05:33N 40°40' W 074°00'0 0.0
2016-Jan-31 04:33N 40°40' W 074°00'0 0.0
2016-Jan-31 03:33N 40°40' W 074°00'0 0.0
2016-Jan-31 02:33N 40°40' W 074°00'0 0.0
2016-Jan-31 01:33N 40°40' W 074°00'2 1.8
2016-Jan-31 00:34N 40°39' W 074°02'2 2.2
2016-Jan-30 23:33N 40°39' W 074°05'2 1.8
2016-Jan-30 22:33N 40°39' W 074°03'0 0.1
2016-Jan-30 21:33N 40°40' W 074°03'0 0.2
2016-Jan-30 20:33N 40°40' W 074°03'4 4.1
2016-Jan-30 19:33N 40°35' W 074°02'6 6.3
2016-Jan-30 18:33N 40°30' W 073°57'39 9.2
2016-Jan-30 14:17N 39°51' W 073°57'8 9.9
2016-Jan-30 13:30N 39°44' W 074°00'10 9.8
2016-Jan-30 12:31N 39°35' W 074°05'10 9.8
2016-Jan-30 11:33N 39°26' W 074°11'46 9.2
2016-Jan-30 06:31N 38°51' W 074°49'7 7.7
2016-Jan-30 05:33N 38°48' W 074°58'6 6.5
2016-Jan-30 04:33N 38°53' W 075°04'7 7.4
2016-Jan-30 03:33N 38°59' W 075°08'7 6.8
2016-Jan-30 02:33N 39°06' W 075°12'8 7.8
2016-Jan-30 01:33N 39°12' W 075°17'9 8.8
2016-Jan-30 00:33N 39°19' W 075°24'9 9.0
2016-Jan-29 23:33N 39°26' W 075°32'7 7.4
2016-Jan-29 22:33N 39°33' W 075°33'6 6.0
2016-Jan-29 21:33N 39°39' W 075°33'6 6.0
2016-Jan-29 20:33N 39°45' W 075°30'6 6.0
2016-Jan-29 19:33N 39°49' W 075°24'6 5.8
2016-Jan-29 18:33N 39°51' W 075°17'4 3.5
2016-Jan-29 17:33N 39°52' W 075°13'2 1.6
2016-Jan-29 16:33N 39°54' W 075°12'0 0.0
2016-Jan-29 15:33N 39°54' W 075°12'2 1.7
2016-Jan-29 14:33N 39°52' W 075°13'0 0.0
2016-Jan-29 13:33N 39°52' W 075°13'0 0.0
2016-Jan-29 12:33N 39°52' W 075°13'0 0.0
2016-Jan-29 11:33N 39°52' W 075°13'0 0.2
2016-Jan-29 10:33N 39°52' W 075°13'0 0.0
2016-Jan-29 09:33N 39°52' W 075°13'0 0.0
2016-Jan-29 08:33N 39°52' W 075°13'1 1.1
2016-Jan-29 07:33N 39°51' W 075°14'0 0.0
2016-Jan-29 06:33N 39°51' W 075°14'0 0.0
2016-Jan-29 05:33N 39°51' W 075°14'0 0.1
2016-Jan-29 04:33N 39°51' W 075°14'6 6.0
2016-Jan-29 03:33N 39°55' W 075°08'4 4.2
2016-Jan-29 02:33N 39°59' W 075°05'0 0.4
2016-Jan-29 01:33N 39°59' W 075°05'0 0.0
2016-Jan-29 00:33N 39°59' W 075°05'0 0.0
2016-Jan-28 23:33N 39°59' W 075°05'0 0.0
2016-Jan-28 22:33N 39°59' W 075°05'0 0.0
2016-Jan-28 21:33N 39°59' W 075°05'4 4.1
2016-Jan-28 20:33N 39°55' W 075°08'4 3.7
2016-Jan-28 19:33N 39°54' W 075°12'0 0.0
2016-Jan-28 18:33N 39°54' W 075°12'0 0.0
2016-Jan-28 17:33N 39°54' W 075°12'0 0.0
2016-Jan-28 16:33N 39°54' W 075°12'0 0.0
2016-Jan-28 15:33N 39°54' W 075°12'  

Dump ship's entire track history